Time;durP1;ratioP1;P1;durP2;ratioP2;P2;SDS_P1;SDS_P2;PMS_P1;PMS_P2;Temp;Humidity;BMP_temperature;BMP_pressure;BME280_temperature;BME280_humidity;BME280_pressure;Samples;Min_cycle;Max_cycle;Signal;HPM_P1;HPM_P2
2024/01/23 00:01:44;;;;;;;;;;;;;;;19.99;43.44;96106.75;10480320;28;3193;-68
2024/01/23 00:06:46;;;;;;;;;;;;;;;20.00;42.54;96115.44;10476325;28;2992;-69
2024/01/23 00:11:46;;;;;;;;;;;;;;;20.04;41.89;96113.88;10470537;28;2953;-68
2024/01/23 00:16:47;;;;;;;;;;;;;;;19.98;43.44;96115.72;10469581;28;2788;-71
2024/01/23 00:21:47;;;;;;;;;;;;;;;20.01;42.76;96115.19;10470219;28;2914;-68
2024/01/23 00:26:47;;;;;;;;;;;;;;;20.00;41.41;96128.59;10473813;28;2871;-69
2024/01/23 00:31:47;;;;;;;;;;;;;;;20.01;43.59;96136.25;10472104;28;2962;-67
2024/01/23 00:36:48;;;;;;;;;;;;;;;20.03;42.69;96139.41;10469960;28;3156;-67
2024/01/23 00:41:48;;;;;;;;;;;;;;;19.97;43.98;96123.88;10474208;28;2957;-68
2024/01/23 00:46:48;;;;;;;;;;;;;;;19.95;41.58;96125.97;10471019;28;3054;-69
2024/01/23 00:51:49;;;;;;;;;;;;;;;19.92;42.51;96115.97;10469313;28;2952;-68
2024/01/23 00:56:49;;;;;;;;;;;;;;;19.88;40.15;96128.84;10472056;28;3044;-67
2024/01/23 01:01:49;;;;;;;;;;;;;;;19.77;41.15;96121.97;10473516;28;2901;-68
2024/01/23 01:06:50;;;;;;;;;;;;;;;19.78;39.18;96141.19;10470994;28;2885;-68
2024/01/23 01:11:50;;;;;;;;;;;;;;;19.75;38.75;96131.97;10461743;28;2949;-68
2024/01/23 01:16:50;;;;;;;;;;;;;;;19.72;38.47;96153.50;10466138;28;2910;-68
2024/01/23 01:21:51;;;;;;;;;;;;;;;19.74;37.43;96182.97;10463774;28;2886;-69
2024/01/23 01:26:51;;;;;;;;;;;;;;;19.78;37.51;96180.66;10499403;28;2960;-68
2024/01/23 01:31:52;;;;;;;;;;;;;;;19.80;37.44;96176.72;10472674;28;3020;-68
2024/01/23 01:36:52;;;;;;;;;;;;;;;19.85;37.20;96165.41;10465307;28;3092;-67
2024/01/23 01:41:55;;;;;;;;;;;;;;;19.87;36.81;96158.03;10466429;28;2973;-68
2024/01/23 01:46:56;;;;;;;;;;;;;;;19.91;36.60;96159.09;10495640;28;2882;-67
2024/01/23 01:51:56;;;;;;;;;;;;;;;19.94;35.86;96166.50;10467822;28;2977;-68
2024/01/23 01:56:59;;;;;;;;;;;;;;;19.92;35.86;96166.75;10448853;28;3106;-68
2024/01/23 02:02:00;;;;;;;;;;;;;;;19.94;36.19;96164.66;10496978;28;2954;-67
2024/01/23 02:07:00;;;;;;;;;;;;;;;19.97;35.74;96174.66;10505607;27;2998;-67
2024/01/23 02:12:01;;;;;;;;;;;;;;;20.01;35.21;96183.59;10467976;28;2882;-66
2024/01/23 02:17:02;;;;;;;;;;;;;;;19.99;34.97;96180.44;10464320;28;3035;-67
2024/01/23 02:22:02;;;;;;;;;;;;;;;20.01;34.59;96193.34;10468542;28;2891;-69
2024/01/23 02:27:02;;;;;;;;;;;;;;;20.03;34.73;96192.03;10468649;28;2981;-67
2024/01/23 02:32:03;;;;;;;;;;;;;;;20.06;34.23;96206.50;10463188;28;3002;-66
2024/01/23 02:37:03;;;;;;;;;;;;;;;20.08;33.94;96207.03;10461534;28;3072;-67
2024/01/23 02:42:03;;;;;;;;;;;;;;;20.07;33.88;96218.63;10472724;28;2954;-67
2024/01/23 02:47:04;;;;;;;;;;;;;;;20.10;33.82;96223.38;10462516;28;2922;-67
2024/01/23 02:52:04;;;;;;;;;;;;;;;20.08;33.73;96228.91;10463160;28;2890;-67
2024/01/23 02:57:04;;;;;;;;;;;;;;;20.12;33.16;96216.81;10469358;28;2953;-67
2024/01/23 03:02:05;;;;;;;;;;;;;;;20.13;33.46;96238.66;10467399;28;2929;-67
2024/01/23 03:07:05;;;;;;;;;;;;;;;20.13;33.39;96254.44;10464495;28;2965;-67
2024/01/23 03:12:15;;;;;;;;;;;;;;;20.13;33.38;96244.69;10468542;28;3103;-67
2024/01/23 03:17:16;;;;;;;;;;;;;;;20.14;33.12;96250.75;10465757;28;2953;-67
2024/01/23 03:22:16;;;;;;;;;;;;;;;20.14;33.22;96254.19;10462935;28;3051;-68
2024/01/23 03:27:17;;;;;;;;;;;;;;;20.13;32.95;96262.34;10464327;28;2936;-67
2024/01/23 03:32:17;;;;;;;;;;;;;;;20.15;32.28;96254.97;10465632;28;2814;-66
2024/01/23 03:37:17;;;;;;;;;;;;;;;20.18;32.36;96262.34;10461776;28;3145;-67
2024/01/23 03:42:17;;;;;;;;;;;;;;;20.18;31.84;96273.66;10473832;28;3133;-67
2024/01/23 03:47:18;;;;;;;;;;;;;;;20.18;32.67;96304.47;10473374;28;2920;-67
2024/01/23 03:52:18;;;;;;;;;;;;;;;20.19;31.75;96287.63;10475365;28;2857;-68
2024/01/23 03:57:18;;;;;;;;;;;;;;;20.20;31.95;96287.41;10476106;28;2830;-68
2024/01/23 04:02:21;;;;;;;;;;;;;;;20.21;32.27;96277.66;10474352;28;3048;-67
2024/01/23 04:07:21;;;;;;;;;;;;;;;20.22;32.23;96289.75;10469001;28;3132;-67
2024/01/23 04:12:21;;;;;;;;;;;;;;;20.23;31.59;96294.00;10471253;28;3098;-67
2024/01/23 04:17:21;;;;;;;;;;;;;;;20.23;31.54;96289.53;10471017;28;2977;-68
2024/01/23 04:22:21;;;;;;;;;;;;;;;20.23;31.88;96273.72;10472292;28;3063;-67
2024/01/23 04:27:22;;;;;;;;;;;;;;;20.24;31.83;96287.66;10466583;28;2902;-67
2024/01/23 04:32:22;;;;;;;;;;;;;;;20.23;32.17;96288.72;10466616;28;2966;-67
2024/01/23 04:37:23;;;;;;;;;;;;;;;20.27;31.39;96295.84;10465342;28;3040;-67
2024/01/23 04:42:23;;;;;;;;;;;;;;;20.24;31.31;96301.63;10496834;28;3039;-67
2024/01/23 04:47:23;;;;;;;;;;;;;;;20.28;31.32;96304.53;10462145;28;3041;-67
2024/01/23 04:52:23;;;;;;;;;;;;;;;20.28;31.04;96320.31;10468613;28;2926;-67
2024/01/23 04:57:30;;;;;;;;;;;;;;;20.34;31.13;96334.31;10502150;28;2918;-67
2024/01/23 05:02:30;;;;;;;;;;;;;;;20.28;31.06;96330.84;10468118;28;2910;-68
2024/01/23 05:07:30;;;;;;;;;;;;;;;20.29;30.39;96332.44;10471052;28;2858;-66
2024/01/23 05:12:31;;;;;;;;;;;;;;;20.29;31.00;96335.09;10473492;28;3086;-67
2024/01/23 05:17:31;;;;;;;;;;;;;;;20.32;30.77;96365.38;10499476;28;2911;-66
2024/01/23 05:22:32;;;;;;;;;;;;;;;20.33;30.40;96365.13;10469321;28;3048;-67
2024/01/23 05:27:32;;;;;;;;;;;;;;;20.38;30.48;96366.97;10469101;28;2796;-67
2024/01/23 05:32:32;;;;;;;;;;;;;;;20.28;31.25;96394.84;10466584;28;2931;-67
2024/01/23 05:37:32;;;;;;;;;;;;;;;20.35;30.65;96402.50;10483893;28;3035;-67
2024/01/23 05:42:33;;;;;;;;;;;;;;;20.37;30.64;96397.78;10474343;28;2905;-68
2024/01/23 05:47:33;;;;;;;;;;;;;;;20.36;30.35;96422.50;10468508;28;2798;-68
2024/01/23 05:52:33;;;;;;;;;;;;;;;20.34;30.77;96445.66;10471769;28;2973;-67
2024/01/23 05:57:35;;;;;;;;;;;;;;;20.33;31.04;96446.72;10465034;28;2849;-68
2024/01/23 06:02:35;;;;;;;;;;;;;;;20.37;30.36;96476.78;10465602;28;3024;-67
2024/01/23 06:07:39;;;;;;;;;;;;;;;20.32;30.50;96483.84;10465266;28;2973;-67
2024/01/23 06:12:40;;;;;;;;;;;;;;;20.35;30.21;96501.75;10478736;28;3004;-68
2024/01/23 06:17:40;;;;;;;;;;;;;;;20.33;30.55;96506.50;10467151;28;3256;-67
2024/01/23 06:22:40;;;;;;;;;;;;;;;20.34;30.29;96500.97;10470307;28;2906;-68
2024/01/23 06:27:41;;;;;;;;;;;;;;;20.36;30.40;96519.16;10466709;28;3004;-68
2024/01/23 06:32:42;;;;;;;;;;;;;;;20.33;30.78;96531.00;10464859;28;3094;-62
2024/01/23 06:37:42;;;;;;;;;;;;;;;20.33;30.85;96548.63;10467852;28;3190;-62
2024/01/23 06:42:43;;;;;;;;;;;;;;;20.31;30.84;96577.84;10464782;28;2956;-66
2024/01/23 06:47:43;;;;;;;;;;;;;;;20.30;31.02;96581.50;10470424;28;2977;-67
2024/01/23 06:52:43;;;;;;;;;;;;;;;20.40;29.75;96568.44;10473221;28;3079;-67
2024/01/23 06:57:44;;;;;;;;;;;;;;;20.36;30.13;96580.50;10461494;28;2946;-66
2024/01/23 07:02:44;;;;;;;;;;;;;;;20.38;30.05;96594.22;10463770;28;3031;-66
2024/01/23 07:07:44;;;;;;;;;;;;;;;20.36;30.05;96606.81;10465195;28;2946;-67
2024/01/23 07:12:45;;;;;;;;;;;;;;;20.40;30.42;96613.22;10469427;28;2886;-66
2024/01/23 07:17:46;;;;;;;;;;;;;;;20.40;29.45;96607.94;10473224;28;3017;-66
2024/01/23 07:22:46;;;;;;;;;;;;;;;20.38;30.56;96630.28;10472896;28;2866;-65
2024/01/23 07:27:47;;;;;;;;;;;;;;;20.33;30.98;96633.69;10473121;28;2935;-67
2024/01/23 07:32:47;;;;;;;;;;;;;;;20.27;31.16;96653.91;10471465;28;3165;-67
2024/01/23 07:37:47;;;;;;;;;;;;;;;20.25;31.80;96666.53;10476136;28;3131;-64
2024/01/23 07:42:48;;;;;;;;;;;;;;;20.25;31.96;96671.00;10500927;28;2926;-65
2024/01/23 07:47:48;;;;;;;;;;;;;;;20.25;31.79;96679.69;10472170;28;2858;-62
2024/01/23 07:52:48;;;;;;;;;;;;;;;20.26;31.85;96688.38;10472953;28;3412;-64
2024/01/23 07:57:49;;;;;;;;;;;;;;;20.23;32.01;96691.50;10477669;28;3118;-65
2024/01/23 08:02:49;;;;;;;;;;;;;;;20.24;31.72;96698.34;10473638;28;3008;-65
2024/01/23 08:07:50;;;;;;;;;;;;;;;20.23;32.09;96717.84;10471242;28;2929;-64
2024/01/23 08:12:50;;;;;;;;;;;;;;;20.35;32.00;96726.38;10473517;28;2829;-68
2024/01/23 08:17:51;;;;;;;;;;;;;;;20.49;31.63;96732.03;10500531;28;2930;-66
2024/01/23 08:22:51;;;;;;;;;;;;;;;20.60;31.28;96717.91;10468173;28;2926;-63
2024/01/23 08:27:51;;;;;;;;;;;;;;;20.74;30.60;96722.53;10472316;28;2974;-66
2024/01/23 08:32:51;;;;;;;;;;;;;;;20.88;30.01;96730.81;10473331;28;3016;-68
2024/01/23 08:37:52;;;;;;;;;;;;;;;20.96;29.83;96746.94;10470966;28;3062;-82
2024/01/23 08:42:52;;;;;;;;;;;;;;;20.99;30.08;96749.09;10465289;28;3096;-69
2024/01/23 08:47:52;;;;;;;;;;;;;;;21.10;30.36;96757.09;10472949;28;2860;-65
2024/01/23 08:52:53;;;;;;;;;;;;;;;21.13;30.08;96770.56;10511754;28;2759;-68
2024/01/23 08:57:53;;;;;;;;;;;;;;;21.16;30.05;96780.63;10474278;28;2842;-64
2024/01/23 09:02:53;;;;;;;;;;;;;;;21.23;29.79;96793.56;10472256;28;2870;-71
2024/01/23 09:07:53;;;;;;;;;;;;;;;21.23;29.57;96791.75;10469442;28;2849;-72
2024/01/23 09:12:54;;;;;;;;;;;;;;;21.24;29.81;96797.81;10470984;28;2877;-68
2024/01/23 09:17:54;;;;;;;;;;;;;;;21.34;29.50;96805.81;10465990;28;2860;-76
2024/01/23 09:22:54;;;;;;;;;;;;;;;21.31;29.81;96814.22;10470966;28;2897;-66
2024/01/23 09:27:56;;;;;;;;;;;;;;;21.30;29.74;96826.63;10465975;28;2837;-65
2024/01/23 09:32:58;;;;;;;;;;;;;;;21.37;29.41;96831.69;10464464;28;2994;-65
2024/01/23 09:37:58;;;;;;;;;;;;;;;21.37;29.13;96839.59;10464734;28;3035;-64
2024/01/23 09:42:58;;;;;;;;;;;;;;;21.36;29.36;96835.34;10466945;28;2865;-62
2024/01/23 09:48:01;;;;;;;;;;;;;;;21.33;29.82;96843.78;10473858;28;2802;-69
2024/01/23 09:53:01;;;;;;;;;;;;;;;21.39;29.71;96854.09;10471112;28;2865;-73
2024/01/23 09:58:06;;;;;;;;;;;;;;;21.39;29.86;96848.06;10465754;28;2897;-66
2024/01/23 10:03:06;;;;;;;;;;;;;;;21.30;30.81;96839.00;10463274;28;2957;-67
2024/01/23 10:08:07;;;;;;;;;;;;;;;21.31;30.26;96856.44;10479867;28;2865;-68
2024/01/23 10:13:07;;;;;;;;;;;;;;;21.32;30.42;96860.63;10487098;28;2849;-68
2024/01/23 10:18:07;;;;;;;;;;;;;;;21.34;30.02;96866.47;10467530;28;3039;-67
2024/01/23 10:23:07;;;;;;;;;;;;;;;21.25;30.67;96868.75;10467375;28;2851;-68
2024/01/23 10:28:08;;;;;;;;;;;;;;;21.22;30.63;96866.63;10496527;28;2812;-68
2024/01/23 10:33:10;;;;;;;;;;;;;;;21.14;30.95;96882.91;10468124;28;2916;-74
2024/01/23 10:38:10;;;;;;;;;;;;;;;21.18;29.86;96886.66;10467222;28;2853;-74
2024/01/23 10:43:10;;;;;;;;;;;;;;;21.17;29.84;96894.78;10470531;28;2849;-75
2024/01/23 10:48:11;;;;;;;;;;;;;;;21.15;29.93;96894.22;10469028;28;2807;-71
2024/01/23 10:53:12;;;;;;;;;;;;;;;21.08;29.96;96891.03;10466257;28;2827;-69
2024/01/23 10:58:18;;;;;;;;;;;;;;;21.07;29.93;96892.84;10470223;28;2794;-74
2024/01/23 11:03:18;;;;;;;;;;;;;;;21.04;29.38;96886.22;10482949;28;2885;-62
2024/01/23 11:08:19;;;;;;;;;;;;;;;21.06;29.38;96892.06;10466802;28;2933;-62
2024/01/23 11:13:23;;;;;;;;;;;;;;;20.99;29.56;96880.09;10462181;28;2798;-62
2024/01/23 11:18:27;;;;;;;;;;;;;;;20.93;30.14;96881.88;10464252;28;2932;-64
2024/01/23 11:23:27;;;;;;;;;;;;;;;20.92;29.24;96875.00;10493952;28;2893;-63
2024/01/23 11:28:27;;;;;;;;;;;;;;;20.86;29.27;96865.47;10465074;28;2966;-62
2024/01/23 11:33:28;;;;;;;;;;;;;;;20.82;30.33;96853.03;10494701;28;2974;-61
2024/01/23 11:38:37;;;;;;;;;;;;;;;20.79;30.17;96854.31;10462845;28;3045;-61
2024/01/23 11:43:37;;;;;;;;;;;;;;;20.75;30.72;96850.59;10467565;28;2823;-61
2024/01/23 11:48:38;;;;;;;;;;;;;;;20.77;30.35;96850.34;10463128;28;3127;-61
2024/01/23 11:53:39;;;;;;;;;;;;;;;20.73;31.31;96846.63;10497552;28;2995;-71
2024/01/23 11:58:43;;;;;;;;;;;;;;;20.71;31.19;96836.31;10498087;28;2823;-76
2024/01/23 12:03:49;;;;;;;;;;;;;;;20.72;31.33;96822.13;10474470;28;3072;-68
2024/01/23 12:08:50;;;;;;;;;;;;;;;20.71;31.98;96844.22;10473738;28;2798;-70
2024/01/23 12:13:50;;;;;;;;;;;;;;;20.69;32.17;96835.75;10469670;28;2784;-74
2024/01/23 12:18:57;;;;;;;;;;;;;;;20.70;32.26;96840.00;10469652;28;2918;-72
2024/01/23 12:23:57;;;;;;;;;;;;;;;20.71;32.34;96838.19;10471264;28;3091;-72
2024/01/23 12:28:57;;;;;;;;;;;;;;;20.69;32.19;96842.91;10470924;28;2938;-69
2024/01/23 12:33:58;;;;;;;;;;;;;;;20.69;31.92;96842.91;10472427;28;2925;-71
2024/01/23 12:38:59;;;;;;;;;;;;;;;20.63;32.28;96828.84;10473215;28;2982;-77
2024/01/23 12:43:59;;;;;;;;;;;;;;;20.64;31.52;96835.72;10480357;28;2946;-67
2024/01/23 12:49:06;;;;;;;;;;;;;;;20.63;31.92;96849.16;10479765;28;2837;-73
2024/01/23 12:54:07;;;;;;;;;;;;;;;20.62;31.92;96851.00;10466657;28;2838;-75
2024/01/23 12:59:07;;;;;;;;;;;;;;;20.60;31.53;96868.88;10472277;28;2922;-71
2024/01/23 13:04:08;;;;;;;;;;;;;;;20.58;31.51;96857.00;10469656;28;2841;-76
2024/01/23 13:09:08;;;;;;;;;;;;;;;20.53;31.82;96860.34;10474022;28;2841;-72
2024/01/23 13:14:09;;;;;;;;;;;;;;;20.55;31.68;96855.63;10468211;28;2877;-74
2024/01/23 13:19:10;;;;;;;;;;;;;;;20.52;32.25;96860.63;10448600;28;2865;-68
2024/01/23 13:24:10;;;;;;;;;;;;;;;20.53;31.82;96860.34;10472505;28;2910;-68
2024/01/23 13:29:10;;;;;;;;;;;;;;;20.53;31.99;96857.72;10465120;28;2853;-66
2024/01/23 13:34:13;;;;;;;;;;;;;;;20.52;32.30;96842.97;10467557;28;2878;-67
2024/01/23 13:39:18;;;;;;;;;;;;;;;20.51;32.11;96862.44;10462993;28;3334;-68
2024/01/23 13:44:19;;;;;;;;;;;;;;;20.49;31.97;96880.34;10466534;28;2912;-64
2024/01/23 13:49:20;;;;;;;;;;;;;;;20.51;31.67;96872.97;10463102;28;3152;-68
2024/01/23 13:54:20;;;;;;;;;;;;;;;20.49;32.05;96869.78;10464296;28;2895;-69
2024/01/23 13:59:21;;;;;;;;;;;;;;;20.48;31.99;96877.94;10466688;28;2948;-67
2024/01/23 14:04:21;;;;;;;;;;;;;;;20.46;31.74;96874.75;10463352;28;2950;-67
2024/01/23 14:09:21;;;;;;;;;;;;;;;20.43;31.78;96873.41;10463482;28;2910;-67
2024/01/23 14:14:22;;;;;;;;;;;;;;;20.45;31.70;96875.78;10462038;28;2865;-65
2024/01/23 14:19:22;;;;;;;;;;;;;;;20.40;32.07;96889.72;10465371;28;2912;-68
2024/01/23 14:24:22;;;;;;;;;;;;;;;20.40;31.53;96875.75;10463752;28;2861;-69
2024/01/23 14:29:22;;;;;;;;;;;;;;;20.36;31.58;96890.44;10465365;28;2848;-62
2024/01/23 14:34:23;;;;;;;;;;;;;;;20.34;31.47;96895.94;10464087;28;3121;-76
2024/01/23 14:39:24;;;;;;;;;;;;;;;20.33;31.12;96885.66;10466171;28;2932;-68
2024/01/23 14:44:25;;;;;;;;;;;;;;;20.29;31.09;96898.53;10463633;28;2861;-70
2024/01/23 14:49:25;;;;;;;;;;;;;;;20.26;31.07;96906.91;10464652;28;2873;-68
2024/01/23 14:54:25;;;;;;;;;;;;;;;20.24;31.12;96911.59;10466205;28;2850;-70
2024/01/23 14:59:26;;;;;;;;;;;;;;;20.20;30.98;96895.50;10461822;28;2921;-70
2024/01/23 15:04:26;;;;;;;;;;;;;;;20.18;31.00;96899.38;10462759;28;2945;-67
2024/01/23 15:09:26;;;;;;;;;;;;;;;20.16;31.02;96914.63;10491702;28;2840;-66
2024/01/23 15:14:27;;;;;;;;;;;;;;;20.13;31.16;96917.75;10461851;28;2861;-66
2024/01/23 15:19:27;;;;;;;;;;;;;;;20.11;31.12;96923.25;10461050;28;2890;-67
2024/01/23 15:24:27;;;;;;;;;;;;;;;20.08;31.49;96936.91;10466252;28;2923;-70
2024/01/23 15:29:27;;;;;;;;;;;;;;;20.08;31.46;96949.25;10458276;28;3012;-63
2024/01/23 15:34:28;;;;;;;;;;;;;;;20.06;30.89;96953.97;10461286;28;2821;-69
2024/01/23 15:39:28;;;;;;;;;;;;;;;20.03;31.24;96952.63;10470091;28;2847;-73
2024/01/23 15:44:28;;;;;;;;;;;;;;;20.01;31.10;96957.31;10473839;28;2836;-75
2024/01/23 15:49:29;;;;;;;;;;;;;;;20.01;31.11;96952.06;10473365;28;2797;-77
2024/01/23 15:54:30;;;;;;;;;;;;;;;19.99;30.82;96942.84;10467351;28;2896;-74
2024/01/23 15:59:30;;;;;;;;;;;;;;;19.98;30.93;96949.91;10471321;28;2850;-79
2024/01/23 16:04:30;;;;;;;;;;;;;;;19.95;30.95;96960.13;10468195;28;2916;-77
2024/01/23 16:09:30;;;;;;;;;;;;;;;19.94;31.15;96956.72;10472518;28;2867;-63
2024/01/23 16:14:31;;;;;;;;;;;;;;;19.94;30.90;96955.91;10467083;28;2880;-64
2024/01/23 16:19:31;;;;;;;;;;;;;;;19.94;30.88;96969.06;10468776;28;2969;-63
2024/01/23 16:24:31;;;;;;;;;;;;;;;19.93;31.21;96972.72;10470131;28;2898;-60
2024/01/23 16:29:31;;;;;;;;;;;;;;;19.93;31.23;96975.34;10472825;28;2924;-62
2024/01/23 16:34:32;;;;;;;;;;;;;;;19.96;31.28;96980.94;10469515;28;2869;-69
2024/01/23 16:39:32;;;;;;;;;;;;;;;19.96;31.42;96988.84;10467383;28;3236;-70
2024/01/23 16:44:32;;;;;;;;;;;;;;;19.93;30.95;96986.69;10466421;28;2849;-71
2024/01/23 16:49:33;;;;;;;;;;;;;;;19.93;31.31;96986.69;10465873;28;2886;-71
2024/01/23 16:54:33;;;;;;;;;;;;;;;19.96;31.18;96980.16;10471289;28;2858;-69
2024/01/23 16:59:33;;;;;;;;;;;;;;;19.99;31.79;96982.31;10470297;28;2917;-69
2024/01/23 17:04:35;;;;;;;;;;;;;;;20.02;31.70;96980.00;10468179;28;2976;-67
2024/01/23 17:09:35;;;;;;;;;;;;;;;20.26;32.51;96972.72;10470360;28;2850;-74
2024/01/23 17:14:35;;;;;;;;;;;;;;;20.48;31.87;96968.31;10468596;28;3033;-74
2024/01/23 17:19:35;;;;;;;;;;;;;;;20.75;31.57;96969.16;10467722;28;3023;-71
2024/01/23 17:24:36;;;;;;;;;;;;;;;20.67;31.33;96960.91;10469576;28;2865;-68
2024/01/23 17:29:39;;;;;;;;;;;;;;;20.62;32.09;96959.00;10462809;28;2913;-75
2024/01/23 17:34:39;;;;;;;;;;;;;;;20.81;33.04;96952.38;10471915;28;2813;-67
2024/01/23 17:39:39;;;;;;;;;;;;;;;21.28;32.35;96949.22;10468487;28;3126;-66
2024/01/23 17:44:39;;;;;;;;;;;;;;;21.12;31.73;96943.00;10467406;28;2875;-62
2024/01/23 17:49:39;;;;;;;;;;;;;;;21.08;31.86;96938.47;10470794;28;2865;-70
2024/01/23 17:54:40;;;;;;;;;;;;;;;21.11;33.05;96935.31;10475237;28;2806;-62
2024/01/23 17:59:40;;;;;;;;;;;;;;;21.32;33.55;96937.13;10469094;28;2862;-61
2024/01/23 18:04:40;;;;;;;;;;;;;;;21.84;32.64;96923.06;10468562;28;2837;-62
2024/01/23 18:09:41;;;;;;;;;;;;;;;21.90;32.12;96931.84;10464742;28;2968;-65
2024/01/23 18:14:42;;;;;;;;;;;;;;;22.16;30.96;96936.25;10466627;28;2846;-62
2024/01/23 18:19:43;;;;;;;;;;;;;;;22.22;30.22;96924.66;10465849;28;3013;-64
2024/01/23 18:24:43;;;;;;;;;;;;;;;22.31;30.78;96936.34;10463507;28;2959;-61
2024/01/23 18:29:43;;;;;;;;;;;;;;;22.58;30.50;96928.31;10465734;28;2851;-63
2024/01/23 18:34:43;;;;;;;;;;;;;;;22.79;29.13;96897.47;10463982;28;2848;-65
2024/01/23 18:39:44;;;;;;;;;;;;;;;22.86;28.33;96896.16;10460677;28;3287;-65
2024/01/23 18:44:44;;;;;;;;;;;;;;;23.07;30.30;96897.00;10466504;28;2842;-61
2024/01/23 18:49:44;;;;;;;;;;;;;;;23.29;30.42;96898.34;10466036;28;2880;-62
2024/01/23 18:54:44;;;;;;;;;;;;;;;23.36;30.80;96892.84;10464455;28;2857;-58
2024/01/23 18:59:45;;;;;;;;;;;;;;;23.48;30.62;96885.44;10457449;28;2849;-59
2024/01/23 19:04:45;;;;;;;;;;;;;;;23.57;29.33;96875.91;10463499;28;3364;-61
2024/01/23 19:09:46;;;;;;;;;;;;;;;23.35;28.78;96880.66;10470825;28;2918;-74
2024/01/23 19:14:47;;;;;;;;;;;;;;;23.19;29.67;96866.59;10453502;28;2878;-69
2024/01/23 19:19:47;;;;;;;;;;;;;;;23.25;29.62;96856.81;10473069;28;2845;-63
2024/01/23 19:24:48;;;;;;;;;;;;;;;23.27;30.55;96844.09;10472127;28;2850;-65
2024/01/23 19:29:48;;;;;;;;;;;;;;;23.35;27.92;96838.31;10466628;28;2786;-63
2024/01/23 19:34:48;;;;;;;;;;;;;;;23.30;27.76;96827.72;10480516;28;2767;-66
2024/01/23 19:39:49;;;;;;;;;;;;;;;23.08;29.89;96827.97;10478722;28;3392;-67
2024/01/23 19:44:49;;;;;;;;;;;;;;;22.95;31.44;96828.50;10473863;28;2971;-66
2024/01/23 19:49:49;;;;;;;;;;;;;;;22.85;32.84;96817.91;10473218;28;2832;-66
2024/01/23 19:54:50;;;;;;;;;;;;;;;22.74;33.94;96813.66;10467317;28;2835;-66
2024/01/23 19:59:50;;;;;;;;;;;;;;;22.67;35.86;96808.59;10480470;27;2873;-66
2024/01/23 20:04:50;;;;;;;;;;;;;;;22.62;35.52;96803.31;10486762;28;2224;-65
2024/01/23 20:09:50;;;;;;;;;;;;;;;22.49;35.72;96817.00;10491336;28;1503;-68
2024/01/23 20:14:51;;;;;;;;;;;;;;;22.46;34.98;96811.44;10488199;28;1450;-74
2024/01/23 20:19:51;;;;;;;;;;;;;;;22.36;36.94;96828.03;10487240;28;2333;-71
2024/01/23 20:24:51;;;;;;;;;;;;;;;22.33;36.40;96812.72;10486963;28;1882;-71
2024/01/23 20:29:52;;;;;;;;;;;;;;;22.33;37.61;96810.06;10494596;28;1462;-71
2024/01/23 20:34:54;;;;;;;;;;;;;;;22.29;39.53;96819.56;10494535;28;1663;-71
2024/01/23 20:39:55;;;;;;;;;;;;;;;22.24;37.24;96816.91;10487521;28;2062;-71
2024/01/23 20:44:56;;;;;;;;;;;;;;;22.23;37.99;96796.03;10482480;28;1909;-71
2024/01/23 20:49:57;;;;;;;;;;;;;;;22.18;38.33;96796.81;10492046;28;1519;-71
2024/01/23 20:54:58;;;;;;;;;;;;;;;22.15;39.05;96805.25;10487595;28;2144;-71
2024/01/23 20:59:58;;;;;;;;;;;;;;;22.13;39.47;96801.28;10489892;28;1427;-71
2024/01/23 21:04:58;;;;;;;;;;;;;;;22.11;39.48;96788.34;10518456;28;1914;-71
2024/01/23 21:09:59;;;;;;;;;;;;;;;22.12;39.76;96808.41;10487356;28;1249;-72
2024/01/23 21:14:59;;;;;;;;;;;;;;;22.10;40.21;96805.22;10484529;28;2547;-70
2024/01/23 21:19:59;;;;;;;;;;;;;;;22.05;38.37;96805.19;10488213;28;1557;-70
2024/01/23 21:25:00;;;;;;;;;;;;;;;22.03;39.26;96807.28;10488261;28;1980;-71
2024/01/23 21:30:00;;;;;;;;;;;;;;;21.99;39.33;96794.88;10486373;28;1848;-70
2024/01/23 21:35:03;;;;;;;;;;;;;;;21.99;39.50;96784.31;10494372;28;1445;-71
2024/01/23 21:40:06;;;;;;;;;;;;;;;22.01;38.76;96772.44;10477222;28;3041;-72
2024/01/23 21:45:07;;;;;;;;;;;;;;;22.00;39.28;96762.94;10467830;28;3044;-71
2024/01/23 21:50:09;;;;;;;;;;;;;;;21.95;38.91;96762.91;10467603;28;2882;-70
2024/01/23 21:55:10;;;;;;;;;;;;;;;21.92;39.49;96766.06;10469822;28;2956;-71
2024/01/23 22:00:10;;;;;;;;;;;;;;;21.88;41.12;96759.72;10463967;28;2978;-72
2024/01/23 22:05:11;;;;;;;;;;;;;;;21.85;41.83;96741.75;10469131;28;2968;-73
2024/01/23 22:10:11;;;;;;;;;;;;;;;21.82;40.80;96727.22;10465900;28;2879;-72
2024/01/23 22:15:11;;;;;;;;;;;;;;;21.78;40.96;96725.34;10468327;28;2933;-72
2024/01/23 22:20:11;;;;;;;;;;;;;;;21.76;41.55;96738.00;10468030;28;2888;-70
2024/01/23 22:25:12;;;;;;;;;;;;;;;21.72;41.34;96736.94;10463212;28;2886;-72
2024/01/23 22:30:12;;;;;;;;;;;;;;;21.71;41.88;96722.13;10467403;28;2888;-71
2024/01/23 22:35:12;;;;;;;;;;;;;;;21.69;41.91;96708.41;10463637;28;2904;-70
2024/01/23 22:40:13;;;;;;;;;;;;;;;21.65;42.52;96687.03;10464559;28;2913;-70
2024/01/23 22:45:13;;;;;;;;;;;;;;;21.65;41.32;96659.84;10466102;28;2985;-70
2024/01/23 22:50:13;;;;;;;;;;;;;;;21.64;42.51;96634.50;10468865;28;2910;-69
2024/01/23 22:55:13;;;;;;;;;;;;;;;21.62;42.15;96624.19;10469005;28;2891;-70
2024/01/23 23:00:16;;;;;;;;;;;;;;;21.59;41.88;96608.09;10471203;28;2940;-70
2024/01/23 23:05:16;;;;;;;;;;;;;;;21.58;42.33;96620.50;10468562;28;2795;-70
2024/01/23 23:10:17;;;;;;;;;;;;;;;21.55;41.85;96601.75;10483511;28;2826;-70
2024/01/23 23:15:17;;;;;;;;;;;;;;;21.54;42.48;96602.78;10496456;28;2941;-70
2024/01/23 23:20:17;;;;;;;;;;;;;;;21.51;42.38;96587.50;10464256;28;2877;-70
2024/01/23 23:25:18;;;;;;;;;;;;;;;21.51;42.48;96575.13;10499671;28;2843;-70
2024/01/23 23:30:18;;;;;;;;;;;;;;;21.50;42.25;96564.78;10469085;28;2834;-70
2024/01/23 23:35:18;;;;;;;;;;;;;;;21.48;41.90;96569.53;10450355;28;2955;-70
2024/01/23 23:40:19;;;;;;;;;;;;;;;21.47;42.85;96565.34;10500543;28;2941;-70
2024/01/23 23:45:19;;;;;;;;;;;;;;;21.46;42.63;96556.63;10495852;28;2838;-70
2024/01/23 23:50:19;;;;;;;;;;;;;;;21.44;41.91;96544.72;10468443;28;2877;-69
2024/01/23 23:55:20;;;;;;;;;;;;;;;21.43;43.09;96524.69;10469035;28;2825;-70
